Authier-Nord, Canada
Current Conditions -  °F | °C
As of 11:07 AM on Friday 31 Oct 2014 (Local Time) from CYUY Reporting Station
Snow Showers Snow Showers  
Wind Chill: 21°   Ceiling: 1300
Heat Index: 28°   Visibility: 15mi
Dew Point: 25°   Wind: 7mph
Humidity: 86%   Direction: 360°N
Pressure: 30.18"   Gusts: NA
Location:  48.83°N, 78.87°W
Report Text: CYUY 311507Z 36006KT 340V040 15SM -SHSN FEW008 OVC013 M02/M04 A3018 RMK FU1SC8 FU TR SLP237
Loading
Personal Weather Stations






























Interactive Weather Map
Tropical Storm Tracking
New forecast layout! Learn more

10-Day Weather Forecast

Advertisements
Track Severe Weather on mobile